CZD weather

Cozad Municipal Airport
Cozad, Nebraska, United States

Public forecast

Using degrees Fahrenheit for public forecast. Weather courtesy of forecast.io.

Closest aviation weather report (METAR) to Cozad Municipal Airport

Closest report is Jim Kelly Field, 11.3 nm (21.0 km) ESE. Retrieved 2019/10/19 16:35 UTC (12 minutes ago):

KLXN 191635Z AUTO 28006KT 10SM CLR 13/03 A2988 RMK AO2 T01300034

Closest aviation forecast (TAF) to Cozad Municipal Airport

Closest forecast is North Platte Regional Airport Lee Bird Field, 34.5 nm (63.8 km) WNW. Retrieved 2019/10/19 12:22 UTC (4 hours ago):

TAF KLBF 191120Z 1912/2012 33008KT P6SM SKC FM200600 13008KT P6SM BKN180 WS020/18035KT FM201000 15011KT P6SM BKN200 WS020/20050KT FM201100 17010KT P6SM BKN180 WS020/24045KT